KSNK/SNK METAR and TAF weather

Enter ICAO airport designator
Station Type Date Time Source
KSNK METAR 2019/12/10 19:35 UTC NOAA

KSNK 101935Z AUTO 02003KT 10SM CLR 07/M09 A3028 RMK AO2 T00691091


Station Type Date Time Source
KSNK Decoded METAR 2019/12/10 19:35 UTC NOAA

Snyder, Winston Field Airport, TX, United States (KSNK) 32-41-36N 100-57-01W
Dec 10, 2019 - 02:35 PM EST / 2019.12.10 1935 UTC
Wind: from the NNE (020 degrees) at 3 MPH (3 KT):0
Visibility: 10 mile(s):0
Sky conditions: clear
Temperature: 44.4 F (6.9 C)
Dew Point: 15.6 F (-9.1 C)
Relative Humidity: 30%
Pressure (altimeter): 30.28 in. Hg (1025 hPa)
ob: KSNK 101935Z AUTO 02003KT 10SM CLR 07/M09 A3028 RMK AO2 T00691091
cycle: 19

Station Type Date Time Source
KSNK TAF UTC NOAA

Error!

Example: see airport list